sensor_id;sensor_type;location;lat;lon;timestamp;P1;durP1;ratioP1;P2;durP2;ratioP2
7687;SDS011;30781;48.154;11.554;2022-11-15T00:01:40;6.03;;;5.43;;
7687;SDS011;30781;48.154;11.554;2022-11-15T00:04:08;5.70;;;5.20;;
7687;SDS011;30781;48.154;11.554;2022-11-15T00:06:36;5.97;;;5.37;;
7687;SDS011;30781;48.154;11.554;2022-11-15T00:09:03;6.37;;;5.77;;
7687;SDS011;30781;48.154;11.554;2022-11-15T00:11:31;5.43;;;4.93;;
7687;SDS011;30781;48.154;11.554;2022-11-15T00:13:58;6.03;;;5.43;;
7687;SDS011;30781;48.154;11.554;2022-11-15T00:16:28;6.33;;;5.73;;
7687;SDS011;30781;48.154;11.554;2022-11-15T00:18:56;5.27;;;4.83;;
7687;SDS011;30781;48.154;11.554;2022-11-15T00:21:23;6.17;;;5.40;;
7687;SDS011;30781;48.154;11.554;2022-11-15T00:23:51;5.30;;;4.80;;
7687;SDS011;30781;48.154;11.554;2022-11-15T00:26:19;5.33;;;4.90;;
7687;SDS011;30781;48.154;11.554;2022-11-15T00:28:47;5.33;;;4.93;;
7687;SDS011;30781;48.154;11.554;2022-11-15T00:31:15;6.20;;;5.70;;
7687;SDS011;30781;48.154;11.554;2022-11-15T00:33:44;5.63;;;5.13;;
7687;SDS011;30781;48.154;11.554;2022-11-15T00:36:12;4.97;;;4.57;;
7687;SDS011;30781;48.154;11.554;2022-11-15T00:38:40;5.93;;;5.43;;
7687;SDS011;30781;48.154;11.554;2022-11-15T00:41:08;5.97;;;5.47;;
7687;SDS011;30781;48.154;11.554;2022-11-15T00:43:36;5.60;;;5.10;;
7687;SDS011;30781;48.154;11.554;2022-11-15T00:46:05;6.60;;;5.33;;
7687;SDS011;30781;48.154;11.554;2022-11-15T00:48:33;6.63;;;5.13;;
7687;SDS011;30781;48.154;11.554;2022-11-15T00:51:10;5.57;;;4.87;;
7687;SDS011;30781;48.154;11.554;2022-11-15T00:53:37;5.30;;;4.80;;
7687;SDS011;30781;48.154;11.554;2022-11-15T00:56:04;5.63;;;4.97;;
7687;SDS011;30781;48.154;11.554;2022-11-15T00:58:35;5.30;;;4.80;;
7687;SDS011;30781;48.154;11.554;2022-11-15T01:01:06;5.27;;;4.87;;
7687;SDS011;30781;48.154;11.554;2022-11-15T01:03:36;5.70;;;5.13;;
7687;SDS011;30781;48.154;11.554;2022-11-15T01:06:05;5.67;;;5.17;;
7687;SDS011;30781;48.154;11.554;2022-11-15T01:08:36;6.07;;;5.57;;
7687;SDS011;30781;48.154;11.554;2022-11-15T01:11:04;5.80;;;5.30;;
7687;SDS011;30781;48.154;11.554;2022-11-15T01:13:36;5.77;;;5.10;;
7687;SDS011;30781;48.154;11.554;2022-11-15T01:16:07;5.23;;;4.83;;
7687;SDS011;30781;48.154;11.554;2022-11-15T01:18:36;5.07;;;4.67;;
7687;SDS011;30781;48.154;11.554;2022-11-15T01:21:07;5.23;;;4.73;;
7687;SDS011;30781;48.154;11.554;2022-11-15T01:23:40;4.80;;;4.40;;
7687;SDS011;30781;48.154;11.554;2022-11-15T01:26:09;5.60;;;5.00;;
7687;SDS011;30781;48.154;11.554;2022-11-15T01:28:41;4.93;;;4.53;;
7687;SDS011;30781;48.154;11.554;2022-11-15T01:31:10;5.20;;;4.80;;
7687;SDS011;30781;48.154;11.554;2022-11-15T01:33:39;4.57;;;4.17;;
7687;SDS011;30781;48.154;11.554;2022-11-15T01:36:10;4.53;;;4.07;;
7687;SDS011;30781;48.154;11.554;2022-11-15T01:38:43;4.30;;;4.10;;
7687;SDS011;30781;48.154;11.554;2022-11-15T01:41:18;4.17;;;3.87;;
7687;SDS011;30781;48.154;11.554;2022-11-15T01:43:48;4.17;;;3.87;;
7687;SDS011;30781;48.154;11.554;2022-11-15T01:46:28;4.70;;;4.20;;
7687;SDS011;30781;48.154;11.554;2022-11-15T01:49:00;4.63;;;4.33;;
7687;SDS011;30781;48.154;11.554;2022-11-15T01:51:32;5.27;;;4.20;;
7687;SDS011;30781;48.154;11.554;2022-11-15T01:54:04;4.53;;;4.13;;
7687;SDS011;30781;48.154;11.554;2022-11-15T01:56:38;4.73;;;4.43;;
7687;SDS011;30781;48.154;11.554;2022-11-15T01:59:09;7.37;;;4.20;;
7687;SDS011;30781;48.154;11.554;2022-11-15T02:01:40;4.50;;;4.10;;
7687;SDS011;30781;48.154;11.554;2022-11-15T02:04:10;4.40;;;4.10;;
7687;SDS011;30781;48.154;11.554;2022-11-15T02:06:41;4.67;;;4.20;;
7687;SDS011;30781;48.154;11.554;2022-11-15T02:09:12;4.53;;;4.23;;
7687;SDS011;30781;48.154;11.554;2022-11-15T02:11:40;4.20;;;3.87;;
7687;SDS011;30781;48.154;11.554;2022-11-15T02:14:08;3.70;;;3.40;;
7687;SDS011;30781;48.154;11.554;2022-11-15T02:16:39;4.30;;;3.93;;
7687;SDS011;30781;48.154;11.554;2022-11-15T02:19:29;4.10;;;3.80;;
7687;SDS011;30781;48.154;11.554;2022-11-15T02:22:23;4.47;;;4.17;;
7687;SDS011;30781;48.154;11.554;2022-11-15T02:25:08;4.63;;;4.23;;
7687;SDS011;30781;48.154;11.554;2022-11-15T02:27:53;4.47;;;4.17;;
7687;SDS011;30781;48.154;11.554;2022-11-15T02:30:35;4.60;;;4.30;;
7687;SDS011;30781;48.154;11.554;2022-11-15T02:33:09;4.40;;;4.00;;
7687;SDS011;30781;48.154;11.554;2022-11-15T02:35:52;4.53;;;4.23;;
7687;SDS011;30781;48.154;11.554;2022-11-15T02:38:26;4.00;;;3.70;;
7687;SDS011;30781;48.154;11.554;2022-11-15T02:41:01;4.27;;;4.00;;
7687;SDS011;30781;48.154;11.554;2022-11-15T02:43:43;3.70;;;3.40;;
7687;SDS011;30781;48.154;11.554;2022-11-15T02:46:26;3.60;;;3.40;;
7687;SDS011;30781;48.154;11.554;2022-11-15T02:49:16;3.23;;;3.03;;
7687;SDS011;30781;48.154;11.554;2022-11-15T02:51:45;3.73;;;3.53;;
7687;SDS011;30781;48.154;11.554;2022-11-15T02:54:15;4.30;;;3.70;;
7687;SDS011;30781;48.154;11.554;2022-11-15T02:56:47;3.83;;;3.50;;
7687;SDS011;30781;48.154;11.554;2022-11-15T03:02:28;4.10;;;3.90;;
7687;SDS011;30781;48.154;11.554;2022-11-15T03:05:23;3.90;;;3.60;;
7687;SDS011;30781;48.154;11.554;2022-11-15T03:07:59;4.17;;;3.87;;
7687;SDS011;30781;48.154;11.554;2022-11-15T03:10:35;3.97;;;3.67;;
7687;SDS011;30781;48.154;11.554;2022-11-15T03:13:10;3.57;;;3.27;;
7687;SDS011;30781;48.154;11.554;2022-11-15T03:15:50;3.60;;;3.40;;
7687;SDS011;30781;48.154;11.554;2022-11-15T03:18:25;3.73;;;3.40;;
7687;SDS011;30781;48.154;11.554;2022-11-15T03:20:58;3.03;;;2.93;;
7687;SDS011;30781;48.154;11.554;2022-11-15T03:23:39;5.47;;;4.20;;
7687;SDS011;30781;48.154;11.554;2022-11-15T03:26:08;4.10;;;3.80;;
7687;SDS011;30781;48.154;11.554;2022-11-15T03:28:39;3.43;;;3.23;;
7687;SDS011;30781;48.154;11.554;2022-11-15T03:31:11;3.43;;;3.13;;
7687;SDS011;30781;48.154;11.554;2022-11-15T03:33:55;3.20;;;3.00;;
7687;SDS011;30781;48.154;11.554;2022-11-15T03:36:28;4.40;;;3.83;;
7687;SDS011;30781;48.154;11.554;2022-11-15T03:38:59;3.97;;;3.67;;
7687;SDS011;30781;48.154;11.554;2022-11-15T03:41:32;3.47;;;3.20;;
7687;SDS011;30781;48.154;11.554;2022-11-15T03:44:04;3.40;;;3.10;;
7687;SDS011;30781;48.154;11.554;2022-11-15T03:46:42;3.20;;;2.90;;
7687;SDS011;30781;48.154;11.554;2022-11-15T03:49:15;3.67;;;3.43;;
7687;SDS011;30781;48.154;11.554;2022-11-15T03:51:48;3.80;;;3.50;;
7687;SDS011;30781;48.154;11.554;2022-11-15T03:54:17;3.83;;;3.53;;
7687;SDS011;30781;48.154;11.554;2022-11-15T03:56:48;3.47;;;3.27;;
7687;SDS011;30781;48.154;11.554;2022-11-15T03:59:17;3.97;;;3.57;;
7687;SDS011;30781;48.154;11.554;2022-11-15T04:01:44;3.57;;;3.20;;
7687;SDS011;30781;48.154;11.554;2022-11-15T04:04:12;3.37;;;3.07;;
7687;SDS011;30781;48.154;11.554;2022-11-15T04:06:40;3.53;;;3.23;;
7687;SDS011;30781;48.154;11.554;2022-11-15T04:09:08;4.07;;;3.63;;
7687;SDS011;30781;48.154;11.554;2022-11-15T04:11:35;3.17;;;2.97;;
7687;SDS011;30781;48.154;11.554;2022-11-15T04:14:02;3.83;;;3.53;;
7687;SDS011;30781;48.154;11.554;2022-11-15T04:16:30;3.70;;;3.50;;
7687;SDS011;30781;48.154;11.554;2022-11-15T04:18:57;3.60;;;3.30;;
7687;SDS011;30781;48.154;11.554;2022-11-15T04:21:43;3.00;;;2.80;;
7687;SDS011;30781;48.154;11.554;2022-11-15T04:24:28;3.00;;;2.80;;
7687;SDS011;30781;48.154;11.554;2022-11-15T04:27:01;3.30;;;3.10;;
7687;SDS011;30781;48.154;11.554;2022-11-15T04:29:31;3.40;;;3.20;;
7687;SDS011;30781;48.154;11.554;2022-11-15T04:32:06;4.50;;;4.17;;
7687;SDS011;30781;48.154;11.554;2022-11-15T04:34:33;4.77;;;4.30;;
7687;SDS011;30781;48.154;11.554;2022-11-15T04:37:02;3.70;;;3.40;;
7687;SDS011;30781;48.154;11.554;2022-11-15T04:39:42;3.93;;;3.53;;
7687;SDS011;30781;48.154;11.554;2022-11-15T04:42:10;3.87;;;3.53;;
7687;SDS011;30781;48.154;11.554;2022-11-15T04:44:39;3.73;;;3.43;;
7687;SDS011;30781;48.154;11.554;2022-11-15T04:47:08;3.37;;;3.13;;
7687;SDS011;30781;48.154;11.554;2022-11-15T04:49:35;3.47;;;3.20;;
7687;SDS011;30781;48.154;11.554;2022-11-15T04:52:04;4.07;;;3.63;;
7687;SDS011;30781;48.154;11.554;2022-11-15T04:54:31;4.00;;;3.60;;
7687;SDS011;30781;48.154;11.554;2022-11-15T04:57:01;4.00;;;3.77;;
7687;SDS011;30781;48.154;11.554;2022-11-15T04:59:28;3.93;;;3.63;;
7687;SDS011;30781;48.154;11.554;2022-11-15T05:01:56;4.30;;;3.90;;
7687;SDS011;30781;48.154;11.554;2022-11-15T05:04:26;3.63;;;3.33;;
7687;SDS011;30781;48.154;11.554;2022-11-15T05:06:54;3.87;;;3.57;;
7687;SDS011;30781;48.154;11.554;2022-11-15T05:09:25;2.93;;;2.73;;
7687;SDS011;30781;48.154;11.554;2022-11-15T05:11:52;2.80;;;2.70;;
7687;SDS011;30781;48.154;11.554;2022-11-15T05:14:20;3.50;;;3.20;;
7687;SDS011;30781;48.154;11.554;2022-11-15T05:16:49;3.97;;;3.20;;
7687;SDS011;30781;48.154;11.554;2022-11-15T05:19:17;3.40;;;3.20;;
7687;SDS011;30781;48.154;11.554;2022-11-15T05:21:45;3.77;;;3.43;;
7687;SDS011;30781;48.154;11.554;2022-11-15T05:24:17;3.63;;;3.30;;
7687;SDS011;30781;48.154;11.554;2022-11-15T05:26:46;3.07;;;2.87;;
7687;SDS011;30781;48.154;11.554;2022-11-15T05:29:17;3.20;;;2.90;;
7687;SDS011;30781;48.154;11.554;2022-11-15T05:31:48;3.43;;;3.13;;
7687;SDS011;30781;48.154;11.554;2022-11-15T05:34:17;3.50;;;3.23;;
7687;SDS011;30781;48.154;11.554;2022-11-15T05:36:47;4.10;;;3.63;;
7687;SDS011;30781;48.154;11.554;2022-11-15T05:39:15;3.97;;;3.67;;
7687;SDS011;30781;48.154;11.554;2022-11-15T05:41:47;4.57;;;3.93;;
7687;SDS011;30781;48.154;11.554;2022-11-15T05:44:20;4.67;;;4.30;;
7687;SDS011;30781;48.154;11.554;2022-11-15T05:46:50;5.87;;;4.50;;
7687;SDS011;30781;48.154;11.554;2022-11-15T05:49:21;4.43;;;4.03;;
7687;SDS011;30781;48.154;11.554;2022-11-15T05:51:51;4.77;;;4.37;;
7687;SDS011;30781;48.154;11.554;2022-11-15T05:54:20;6.00;;;5.37;;
7687;SDS011;30781;48.154;11.554;2022-11-15T05:56:50;7.07;;;4.30;;
7687;SDS011;30781;48.154;11.554;2022-11-15T05:59:18;7.60;;;4.30;;
7687;SDS011;30781;48.154;11.554;2022-11-15T06:01:46;4.57;;;4.13;;
7687;SDS011;30781;48.154;11.554;2022-11-15T06:04:16;4.07;;;3.70;;
7687;SDS011;30781;48.154;11.554;2022-11-15T06:06:43;3.57;;;3.37;;
7687;SDS011;30781;48.154;11.554;2022-11-15T06:09:13;3.33;;;3.13;;
7687;SDS011;30781;48.154;11.554;2022-11-15T06:11:40;3.80;;;3.50;;
7687;SDS011;30781;48.154;11.554;2022-11-15T06:14:09;3.73;;;3.53;;
7687;SDS011;30781;48.154;11.554;2022-11-15T06:16:38;6.27;;;4.07;;
7687;SDS011;30781;48.154;11.554;2022-11-15T06:19:09;4.53;;;4.07;;
7687;SDS011;30781;48.154;11.554;2022-11-15T06:21:36;4.63;;;3.87;;
7687;SDS011;30781;48.154;11.554;2022-11-15T06:24:05;3.87;;;3.53;;
7687;SDS011;30781;48.154;11.554;2022-11-15T06:26:32;4.80;;;3.90;;
7687;SDS011;30781;48.154;11.554;2022-11-15T06:29:02;4.90;;;4.23;;
7687;SDS011;30781;48.154;11.554;2022-11-15T06:31:32;5.90;;;4.40;;
7687;SDS011;30781;48.154;11.554;2022-11-15T06:34:00;9.00;;;5.00;;
7687;SDS011;30781;48.154;11.554;2022-11-15T06:36:31;7.63;;;4.30;;
7687;SDS011;30781;48.154;11.554;2022-11-15T06:39:16;6.73;;;4.00;;
7687;SDS011;30781;48.154;11.554;2022-11-15T06:41:44;6.50;;;3.93;;
7687;SDS011;30781;48.154;11.554;2022-11-15T06:44:13;4.23;;;3.43;;
7687;SDS011;30781;48.154;11.554;2022-11-15T06:46:43;6.97;;;4.67;;
7687;SDS011;30781;48.154;11.554;2022-11-15T06:49:10;4.27;;;3.47;;
7687;SDS011;30781;48.154;11.554;2022-11-15T06:51:39;3.07;;;2.57;;
7687;SDS011;30781;48.154;11.554;2022-11-15T06:54:06;3.53;;;3.23;;
7687;SDS011;30781;48.154;11.554;2022-11-15T06:56:33;3.17;;;2.90;;
7687;SDS011;30781;48.154;11.554;2022-11-15T06:59:01;3.40;;;3.07;;
7687;SDS011;30781;48.154;11.554;2022-11-15T07:01:29;7.20;;;3.87;;
7687;SDS011;30781;48.154;11.554;2022-11-15T07:04:15;4.77;;;3.60;;
7687;SDS011;30781;48.154;11.554;2022-11-15T07:06:45;6.03;;;5.23;;
7687;SDS011;30781;48.154;11.554;2022-11-15T07:09:14;4.30;;;3.60;;
7687;SDS011;30781;48.154;11.554;2022-11-15T07:11:46;6.20;;;3.30;;
7687;SDS011;30781;48.154;11.554;2022-11-15T07:14:20;7.07;;;3.93;;
7687;SDS011;30781;48.154;11.554;2022-11-15T07:16:49;5.10;;;3.47;;
7687;SDS011;30781;48.154;11.554;2022-11-15T07:19:18;6.63;;;3.80;;
7687;SDS011;30781;48.154;11.554;2022-11-15T07:21:46;4.57;;;3.10;;
7687;SDS011;30781;48.154;11.554;2022-11-15T07:24:13;4.50;;;3.60;;
7687;SDS011;30781;48.154;11.554;2022-11-15T07:26:45;4.63;;;3.40;;
7687;SDS011;30781;48.154;11.554;2022-11-15T07:29:18;6.10;;;3.60;;
7687;SDS011;30781;48.154;11.554;2022-11-15T07:31:46;4.10;;;3.50;;
7687;SDS011;30781;48.154;11.554;2022-11-15T07:34:14;12.10;;;4.50;;
7687;SDS011;30781;48.154;11.554;2022-11-15T07:36:43;3.80;;;3.50;;
7687;SDS011;30781;48.154;11.554;2022-11-15T07:39:11;4.87;;;4.37;;
7687;SDS011;30781;48.154;11.554;2022-11-15T07:41:39;5.77;;;3.80;;
7687;SDS011;30781;48.154;11.554;2022-11-15T07:44:08;6.73;;;3.33;;
7687;SDS011;30781;48.154;11.554;2022-11-15T07:46:36;4.27;;;3.93;;
7687;SDS011;30781;48.154;11.554;2022-11-15T07:49:08;7.80;;;4.10;;
7687;SDS011;30781;48.154;11.554;2022-11-15T07:51:36;7.20;;;4.33;;
7687;SDS011;30781;48.154;11.554;2022-11-15T07:54:07;6.93;;;4.30;;
7687;SDS011;30781;48.154;11.554;2022-11-15T07:56:36;6.87;;;3.90;;
7687;SDS011;30781;48.154;11.554;2022-11-15T07:59:04;6.27;;;3.73;;
7687;SDS011;30781;48.154;11.554;2022-11-15T08:01:31;6.07;;;4.27;;
7687;SDS011;30781;48.154;11.554;2022-11-15T08:04:05;16.07;;;5.97;;
7687;SDS011;30781;48.154;11.554;2022-11-15T08:06:32;8.13;;;4.60;;
7687;SDS011;30781;48.154;11.554;2022-11-15T08:09:00;4.50;;;3.40;;
7687;SDS011;30781;48.154;11.554;2022-11-15T08:11:30;23.13;;;8.60;;
7687;SDS011;30781;48.154;11.554;2022-11-15T08:13:59;4.50;;;3.90;;
7687;SDS011;30781;48.154;11.554;2022-11-15T08:16:26;5.73;;;4.03;;
7687;SDS011;30781;48.154;11.554;2022-11-15T08:18:55;4.93;;;3.63;;
7687;SDS011;30781;48.154;11.554;2022-11-15T08:21:23;4.07;;;3.60;;
7687;SDS011;30781;48.154;11.554;2022-11-15T08:23:52;4.23;;;3.83;;
7687;SDS011;30781;48.154;11.554;2022-11-15T08:26:22;4.50;;;4.10;;
7687;SDS011;30781;48.154;11.554;2022-11-15T08:28:56;6.13;;;3.40;;
